createdAt,value
2023-02-03T05:14:51.732Z,69.53
2023-02-03T05:17:21.363Z,66.13
2023-02-03T05:19:50.977Z,69.93
2023-02-03T05:22:20.839Z,66.57
2023-02-03T05:24:50.479Z,62.92
2023-02-03T05:27:20.124Z,59.70
2023-02-03T05:29:49.913Z,60.05
2023-02-03T05:32:19.688Z,61.53
2023-02-03T05:34:50.057Z,61.20
2023-02-03T05:37:19.781Z,60.30
2023-02-03T05:39:49.540Z,58.13
2023-02-03T05:42:19.176Z,59.70
2023-02-03T05:44:48.844Z,66.35
2023-02-03T05:47:18.455Z,62.58
2023-02-03T05:49:48.055Z,59.63
2023-02-03T05:52:18.535Z,58.28
2023-02-03T05:54:48.070Z,59.78
2023-02-03T05:57:17.770Z,57.20
2023-02-03T05:59:47.705Z,57.35
2023-02-03T06:02:17.474Z,55.13
2023-02-03T06:04:47.199Z,55.22
2023-02-03T06:07:16.899Z,56.15
2023-02-03T06:09:46.820Z,54.00
2023-02-03T06:12:17.895Z,54.72
2023-02-03T06:14:47.717Z,52.45
2023-02-03T06:17:18.413Z,54.03
2023-02-03T06:19:48.175Z,54.40
2023-02-03T06:22:17.886Z,55.53
2023-02-03T06:24:49.694Z,57.83
2023-02-03T06:27:19.511Z,52.22
2023-02-03T06:29:49.339Z,56.10
2023-02-03T06:32:19.231Z,53.30
2023-02-03T06:34:48.902Z,48.72
2023-02-03T06:37:18.920Z,43.70
2023-02-03T06:39:48.617Z,42.65
2023-02-03T06:42:18.207Z,45.53
2023-02-03T06:44:47.811Z,46.35
2023-02-03T06:47:17.511Z,49.38
2023-02-03T06:49:47.282Z,51.35
2023-02-03T06:52:17.260Z,48.70
2023-02-03T06:54:47.249Z,45.67
2023-02-03T06:57:16.878Z,46.55
2023-02-03T06:59:46.484Z,46.15
2023-02-03T07:02:16.291Z,44.45
2023-02-03T07:04:46.825Z,41.50
2023-02-03T07:07:16.735Z,41.17
2023-02-03T07:09:46.541Z,40.08
2023-02-03T07:12:16.243Z,38.78
2023-02-03T07:14:45.989Z,37.75
2023-02-03T07:17:15.615Z,35.55
2023-02-03T07:19:46.255Z,34.65
2023-02-03T07:22:16.116Z,35.40
2023-02-03T07:24:45.792Z,34.85
2023-02-03T07:27:15.708Z,34.58
2023-02-03T07:29:45.381Z,36.60
2023-02-03T07:32:15.053Z,36.15
2023-02-03T07:34:44.939Z,36.63
2023-02-03T07:37:14.649Z,36.13
2023-02-03T07:39:44.868Z,34.92
2023-02-03T07:42:14.504Z,34.53
2023-02-03T07:44:44.317Z,32.92
2023-02-03T07:47:13.955Z,31.85
2023-02-03T07:49:44.652Z,30.35
2023-02-03T07:52:14.390Z,30.48
2023-02-03T07:54:44.046Z,31.30
2023-02-03T07:57:13.827Z,30.67
2023-02-03T07:59:43.522Z,30.23
2023-02-03T08:02:13.524Z,27.80
2023-02-03T08:04:43.277Z,28.08
2023-02-03T08:07:13.066Z,28.70
2023-02-03T08:09:42.786Z,29.20
2023-02-03T08:12:12.480Z,27.25
2023-02-03T08:14:42.342Z,27.75
2023-02-03T08:17:12.188Z,25.95
2023-02-03T08:19:41.939Z,26.60
2023-02-03T08:22:18.213Z,25.40
2023-02-03T08:24:49.064Z,24.10
2023-02-03T08:27:23.975Z,25.33
2023-02-03T08:29:53.730Z,24.17
2023-02-03T08:32:24.968Z,26.13
2023-02-03T08:34:55.583Z,24.27
2023-02-03T08:37:26.388Z,24.15
2023-02-03T08:39:56.491Z,25.75
2023-02-03T08:42:26.245Z,29.65
2023-02-03T08:44:56.025Z,32.83
2023-02-03T08:47:26.129Z,37.38
2023-02-03T08:49:55.801Z,40.05
2023-02-03T08:52:25.799Z,43.10
2023-02-03T08:54:55.520Z,48.63
2023-02-03T08:57:25.217Z,50.35
2023-02-03T08:59:54.861Z,48.42
2023-02-03T09:02:24.554Z,48.75
2023-02-03T09:04:54.432Z,48.90
2023-02-03T09:07:24.450Z,49.42
2023-02-03T09:09:54.195Z,47.15
2023-02-03T09:12:23.888Z,46.63
2023-02-03T09:14:53.624Z,48.65
2023-02-03T09:17:23.591Z,46.78
2023-02-03T09:19:53.267Z,47.28
2023-02-03T09:22:23.649Z,46.33
2023-02-03T09:24:53.576Z,46.22
2023-02-03T09:27:23.201Z,46.22
2023-02-03T09:29:52.782Z,45.85
2023-02-03T09:32:22.574Z,45.33
2023-02-03T09:34:52.215Z,45.35
2023-02-03T09:37:21.825Z,46.38
2023-02-03T09:39:51.628Z,46.65
2023-02-03T09:42:38.714Z,45.33
2023-02-03T09:45:32.828Z,47.50
2023-02-03T09:48:15.067Z,45.63
2023-02-03T09:50:46.533Z,46.50
2023-02-03T09:53:39.481Z,45.80
2023-02-03T09:56:14.699Z,45.63
2023-02-03T09:58:44.317Z,48.38
2023-02-03T10:01:17.445Z,53.47
2023-02-03T10:04:02.539Z,58.92
2023-02-03T10:06:41.494Z,61.45
2023-02-03T10:09:48.803Z,61.53
2023-02-03T10:12:36.339Z,65.93
2023-02-03T10:15:37.649Z,70.15
2023-02-03T10:18:13.453Z,77.75
2023-02-03T10:21:06.574Z,81.40
2023-02-03T10:23:41.243Z,80.07
2023-02-03T10:26:23.545Z,70.22
2023-02-03T10:29:05.227Z,59.67
2023-02-03T10:31:38.484Z,58.72
2023-02-03T10:34:16.431Z,56.55
2023-02-03T10:37:25.360Z,52.67
2023-02-03T10:39:56.297Z,48.05
2023-02-03T10:42:26.540Z,46.20
2023-02-03T10:45:01.905Z,44.65
2023-02-03T10:47:53.547Z,47.15
2023-02-03T10:50:33.157Z,47.13
2023-02-03T10:53:24.289Z,47.42
2023-02-03T10:56:07.167Z,49.15
2023-02-03T10:58:39.135Z,46.03
2023-02-03T11:01:15.777Z,48.45
2023-02-03T11:04:06.323Z,50.05
2023-02-03T11:06:38.308Z,52.95
2023-02-03T11:09:31.366Z,55.20
2023-02-03T11:12:16.999Z,54.03
2023-02-03T11:14:55.674Z,53.78
2023-02-03T11:17:28.805Z,55.30
2023-02-03T11:20:06.474Z,56.00
2023-02-03T11:22:40.949Z,56.97
2023-02-03T11:25:29.245Z,60.30
2023-02-03T11:28:05.500Z,64.07
2023-02-03T11:30:35.606Z,58.50
2023-02-03T11:33:05.930Z,58.63
2023-02-03T11:35:39.699Z,64.53
2023-02-03T11:38:33.233Z,61.00
2023-02-03T11:41:04.054Z,62.40
2023-02-03T11:43:33.954Z,66.88
2023-02-03T11:46:11.681Z,70.43
2023-02-03T11:49:13.115Z,68.32
2023-02-03T11:52:01.228Z,68.38
2023-02-03T11:54:57.797Z,70.47
2023-02-03T11:57:46.826Z,66.90
2023-02-03T12:00:48.584Z,65.93
2023-02-03T12:03:57.371Z,66.80
2023-02-03T12:06:56.465Z,63.55
2023-02-03T12:09:51.088Z,65.95
2023-02-03T12:12:59.833Z,64.68
2023-02-03T12:15:54.633Z,64.22
2023-02-03T12:19:03.343Z,63.42
2023-02-03T12:21:49.408Z,60.28
2023-02-03T12:24:41.207Z,58.00
2023-02-03T12:27:38.444Z,58.25
2023-02-03T12:30:27.333Z,57.90
2023-02-03T12:33:02.957Z,58.70
2023-02-03T12:35:57.458Z,54.67
2023-02-03T12:38:50.312Z,55.60
2023-02-03T12:41:27.386Z,55.47
2023-02-03T12:44:02.881Z,57.38
2023-02-03T12:46:48.748Z,58.10
2023-02-03T12:49:36.171Z,56.08
2023-02-03T12:52:22.657Z,56.97
2023-02-03T12:55:20.510Z,56.03
2023-02-03T13:00:56.656Z,54.10
2023-02-03T13:03:37.714Z,54.30
2023-02-03T13:06:37.363Z,55.17
2023-02-03T13:09:30.798Z,55.25
2023-02-03T13:12:18.042Z,55.78
2023-02-03T13:15:10.767Z,58.55
2023-02-03T13:18:17.374Z,55.97
2023-02-03T13:20:48.444Z,59.58
2023-02-03T13:23:18.374Z,58.55
2023-02-03T13:26:27.150Z,58.05
2023-02-03T13:29:36.090Z,56.67
2023-02-03T13:32:33.425Z,57.95
2023-02-03T13:35:34.170Z,55.88
2023-02-03T13:38:38.562Z,53.92
2023-02-03T13:41:47.250Z,57.53
2023-02-03T13:44:21.996Z,55.83
2023-02-03T13:46:53.732Z,59.80
2023-02-03T13:49:30.721Z,57.33
2023-02-03T13:52:01.121Z,55.53
2023-02-03T13:54:45.544Z,56.15
2023-02-03T13:57:29.753Z,59.38
2023-02-03T13:59:59.588Z,58.03
2023-02-03T14:02:44.020Z,59.40
2023-02-03T14:05:53.907Z,62.28
2023-02-03T14:08:45.414Z,60.72
2023-02-03T14:11:41.785Z,61.22
2023-02-03T14:14:47.622Z,62.92
2023-02-03T14:17:56.406Z,64.18
2023-02-03T14:20:46.757Z,68.03
2023-02-03T14:23:23.463Z,67.72
2023-02-03T14:26:00.571Z,66.55
2023-02-03T14:28:45.082Z,68.22
2023-02-03T14:31:23.175Z,66.90
2023-02-03T14:34:16.709Z,67.18
2023-02-03T14:36:57.366Z,69.03
2023-02-03T14:39:45.046Z,70.80
2023-02-03T14:42:29.606Z,71.25
2023-02-03T14:45:38.597Z,70.90
2023-02-03T14:48:35.718Z,66.95
2023-02-03T14:51:29.842Z,71.22
2023-02-03T14:54:24.536Z,91.45
2023-02-03T14:57:27.380Z,69.50
2023-02-03T15:00:32.913Z,72.53
2023-02-03T15:03:24.444Z,70.10
2023-02-03T15:05:58.285Z,72.80
2023-02-03T15:08:44.324Z,71.63
2023-02-03T15:11:34.886Z,76.25
2023-02-03T15:14:26.891Z,75.53
2023-02-03T15:17:02.750Z,76.45
2023-02-03T15:19:37.819Z,77.63
2023-02-03T15:22:29.096Z,75.50
2023-02-03T15:25:02.291Z,79.28
2023-02-03T15:27:34.314Z,76.32
2023-02-03T15:30:19.043Z,78.43
2023-02-03T15:33:15.519Z,80.10
2023-02-03T15:35:48.036Z,74.95
2023-02-03T15:38:25.605Z,75.22
2023-02-03T15:40:59.623Z,71.80
2023-02-03T15:43:40.647Z,73.22
2023-02-03T15:46:37.247Z,73.82
2023-02-03T15:49:20.873Z,72.60
2023-02-03T15:51:54.741Z,69.88
2023-02-03T15:54:47.203Z,72.60
2023-02-03T15:57:28.467Z,73.57
2023-02-03T16:00:14.363Z,74.90
2023-02-03T16:02:48.357Z,76.30
2023-02-03T16:05:28.882Z,77.85
2023-02-03T16:07:59.227Z,73.80
2023-02-03T16:10:32.927Z,84.07
2023-02-03T16:13:26.409Z,87.45
2023-02-03T16:16:17.695Z,92.93
2023-02-03T16:18:59.957Z,99.95
2023-02-03T16:21:54.949Z,95.57
2023-02-03T16:24:47.262Z,95.80
2023-02-03T16:27:36.470Z,86.88
2023-02-03T16:30:44.759Z,84.28
2023-02-03T16:33:37.732Z,87.82
2023-02-03T16:36:35.505Z,88.93
2023-02-03T16:39:28.716Z,87.60
2023-02-03T16:42:21.289Z,86.72
2023-02-03T16:45:10.531Z,88.10
2023-02-03T16:48:01.181Z,86.15
2023-02-03T16:50:50.917Z,84.97
2023-02-03T16:53:23.540Z,83.28
2023-02-03T16:55:54.773Z,88.88
2023-02-03T16:58:24.973Z,89.25
2023-02-03T17:00:55.919Z,85.63
2023-02-03T17:03:28.876Z,83.32
2023-02-03T17:05:59.269Z,83.95
2023-02-03T17:08:29.140Z,84.60
2023-02-03T17:11:04.098Z,80.70
2023-02-03T17:13:34.486Z,80.93
2023-02-03T17:16:09.780Z,80.38
2023-02-03T17:18:40.888Z,76.15
2023-02-03T17:21:14.244Z,71.10
2023-02-03T17:23:43.970Z,66.15
2023-02-03T17:26:13.725Z,65.55
2023-02-03T17:28:44.725Z,64.32
2023-02-03T17:31:20.380Z,66.22
2023-02-03T17:33:54.177Z,65.10
2023-02-03T17:36:24.934Z,63.97
2023-02-03T17:55:34.439Z,61.45
2023-02-03T17:58:04.274Z,62.03
2023-02-03T18:00:33.982Z,60.53
2023-02-03T18:03:03.904Z,61.30
2023-02-03T18:05:34.240Z,59.28
2023-02-03T18:08:09.270Z,62.30
2023-02-03T18:10:45.996Z,60.67
2023-02-03T18:13:15.564Z,60.33
2023-02-03T18:15:45.283Z,58.38
2023-02-03T18:18:14.941Z,58.50
2023-02-03T18:20:44.559Z,56.80
2023-02-03T18:23:14.089Z,58.65
2023-02-03T18:25:43.937Z,58.28
2023-02-03T18:28:13.523Z,55.28
2023-02-03T18:30:43.236Z,56.80
2023-02-03T18:33:13.019Z,58.17
2023-02-03T18:35:42.970Z,59.28
2023-02-03T18:38:13.074Z,57.97
2023-02-03T18:40:42.691Z,59.15
2023-02-03T18:43:13.371Z,56.33
2023-02-03T18:45:43.044Z,59.70
2023-02-03T18:48:12.830Z,57.90
2023-02-03T18:50:46.520Z,56.47
2023-02-03T18:53:16.321Z,57.95
2023-02-03T18:55:46.662Z,56.28
2023-02-03T18:58:16.603Z,58.90
2023-02-03T19:00:46.372Z,56.05
2023-02-03T19:03:16.223Z,59.33
2023-02-03T19:05:45.897Z,60.00
2023-02-03T19:08:16.074Z,57.58
2023-02-03T19:10:45.807Z,59.13
2023-02-03T19:13:15.814Z,61.42
2023-02-03T19:15:46.566Z,59.13
2023-02-03T19:18:17.381Z,60.60
2023-02-03T19:20:47.116Z,59.05
2023-02-03T19:23:17.253Z,58.00
2023-02-03T19:25:51.886Z,59.88
2023-02-03T19:28:30.560Z,58.30
2023-02-03T19:31:13.000Z,59.38
2023-02-03T19:33:43.148Z,59.38
2023-02-03T19:36:13.239Z,57.08
2023-02-03T19:38:42.917Z,57.40
2023-02-03T19:41:13.442Z,56.75
2023-02-03T19:43:44.141Z,57.55
2023-02-03T19:46:15.699Z,56.60
2023-02-03T19:48:45.468Z,56.25
2023-02-03T19:51:15.502Z,56.28
2023-02-03T19:53:45.322Z,57.60
2023-02-03T19:56:15.267Z,56.10
2023-02-03T19:58:47.643Z,55.35
2023-02-03T20:01:17.377Z,55.50
2023-02-03T20:03:47.180Z,54.47
2023-02-03T20:06:17.275Z,55.67
2023-02-03T20:08:46.870Z,55.35
2023-02-03T20:11:16.570Z,54.35
2023-02-03T20:13:46.262Z,55.65
2023-02-03T20:16:16.145Z,56.72
2023-02-03T20:18:45.961Z,54.75
2023-02-03T20:21:16.046Z,53.30
2023-02-03T20:23:45.751Z,54.45
2023-02-03T20:26:15.537Z,53.80
2023-02-03T20:28:46.490Z,54.25
2023-02-03T20:31:16.750Z,53.22
2023-02-03T20:33:46.562Z,54.90
2023-02-03T20:36:16.472Z,53.20
2023-02-03T20:38:46.906Z,52.05
2023-02-03T20:41:18.376Z,51.47
2023-02-03T20:43:48.796Z,52.13
2023-02-03T20:46:20.984Z,52.55
2023-02-03T20:48:50.873Z,52.53
2023-02-03T20:51:22.735Z,51.55
2023-02-03T20:53:54.342Z,52.08
2023-02-03T20:56:25.164Z,50.13
2023-02-03T20:58:56.117Z,50.20
2023-02-03T21:01:25.858Z,52.78
2023-02-03T21:04:15.203Z,50.47
2023-02-03T21:06:45.290Z,49.58
2023-02-03T21:09:20.777Z,50.78
2023-02-03T21:11:50.561Z,52.78
2023-02-03T21:14:29.152Z,53.20
2023-02-03T21:16:58.991Z,50.75
2023-02-03T21:19:35.597Z,51.63
2023-02-03T21:22:22.165Z,51.67
2023-02-03T21:25:01.426Z,52.25
2023-02-03T21:27:36.312Z,52.63
2023-02-03T21:30:30.152Z,50.17
2023-02-03T21:33:00.903Z,50.80
2023-02-03T21:35:39.270Z,52.30
2023-02-03T21:38:32.908Z,51.20
2023-02-03T21:41:03.782Z,51.33
2023-02-03T21:43:34.762Z,53.65
2023-02-03T21:46:05.504Z,60.38
2023-02-03T21:48:41.381Z,57.30
2023-02-03T21:51:40.373Z,56.05
2023-02-03T21:54:32.026Z,49.63
2023-02-03T21:57:02.983Z,55.83
2023-02-03T21:59:43.789Z,58.80
2023-02-03T22:02:52.720Z,57.33
2023-02-03T22:05:22.734Z,59.78
2023-02-03T22:07:52.417Z,63.00
2023-02-03T22:10:22.505Z,61.60
2023-02-03T22:12:52.290Z,55.00
2023-02-03T22:15:22.026Z,55.13
2023-02-03T22:17:52.695Z,57.22
2023-02-03T22:20:22.463Z,53.25
2023-02-03T22:22:52.096Z,55.05
2023-02-03T22:25:21.790Z,55.78
2023-02-03T22:27:52.972Z,56.72
2023-02-03T22:30:22.833Z,54.13
2023-02-03T22:32:52.504Z,55.42
2023-02-03T22:35:22.184Z,53.58
2023-02-03T22:37:55.611Z,58.15
2023-02-03T22:40:25.894Z,59.08
2023-02-03T22:42:55.744Z,57.17
2023-02-03T22:45:25.488Z,56.95
2023-02-03T22:47:58.171Z,57.53
2023-02-03T22:50:35.354Z,54.05
2023-02-03T22:53:07.561Z,56.08
2023-02-03T22:55:39.374Z,58.92
2023-02-03T22:58:09.804Z,55.42
2023-02-03T23:00:39.975Z,57.85
2023-02-03T23:03:09.687Z,56.50
2023-02-03T23:05:39.381Z,57.10
2023-02-03T23:08:09.052Z,56.67
2023-02-03T23:10:39.056Z,58.47
2023-02-03T23:13:09.878Z,57.05
2023-02-03T23:15:39.676Z,55.80
2023-02-03T23:18:09.441Z,58.88
2023-02-03T23:20:39.316Z,58.80
2023-02-03T23:23:09.236Z,59.13
2023-02-03T23:25:38.956Z,56.38
2023-02-03T23:28:08.977Z,55.35
2023-02-03T23:30:39.063Z,53.00
2023-02-03T23:33:09.714Z,53.38
2023-02-03T23:35:48.435Z,56.08
2023-02-03T23:38:19.472Z,52.92
2023-02-03T23:40:52.683Z,51.45
2023-02-03T23:43:22.563Z,52.22
2023-02-03T23:45:52.885Z,52.20
2023-02-03T23:48:23.580Z,51.90
2023-02-03T23:50:53.565Z,53.60
2023-02-03T23:53:23.306Z,54.42
2023-02-03T23:55:53.203Z,58.58
2023-02-03T23:58:22.845Z,55.60
